KMMU

Morristown Municipal Airport

Morristown, New Jersey, USA
METAR KMMU 200655Z AUTO 19003KT 3/4SM BR OVC003 07/07 A3030 RMK AO2
Observed Flight Rules
Feb-20 @ 06:55 UTC (31 minutes ago) Instrument Flight Rules
Wind Visibility Clouds Conditions
190° at 3 knots 3/4 miles
  • Overcast at 300' AGL
  • Mist
Temperatures Readings
Current 7°C / 45°F
Dewpoint 7°C / 45°F
Humidity 100%
Altimeter 30.3" Hg
Pressure 1026 hPa
Elevation 57
METAR KMMU 200655Z AUTO 19003KT 3/4SM BR OVC003 07/07 A3030 RMK AO2
Observed Flight Rules
Feb-20 @ 06:55 UTC
(31 minutes ago)
LIFR
Wind Visibility
190° at 3 knots 3/4 miles
Clouds
  • Overcast at 300' AGL
Conditions
  • Mist
Temperature Dewpoint
7°C / 45°F 7°C / 45°F
Humidity Altimeter Pressure
100% 30.3" Hg 1026 hPa